createdAt,value
2019-03-29T10:36:34.801Z,33.33
2019-03-29T10:39:05.121Z,32.40
2019-03-29T10:41:36.549Z,33.17
2019-03-29T10:44:05.194Z,33.27
2019-03-29T10:46:34.385Z,32.83
2019-03-29T10:49:03.610Z,32.87
2019-03-29T10:51:32.787Z,32.88
2019-03-29T10:54:02.052Z,30.00
2019-03-29T10:56:34.257Z,29.50
2019-03-29T10:59:02.243Z,30.67
2019-03-29T11:01:31.438Z,30.97
2019-03-29T11:04:00.602Z,29.83
2019-03-29T11:06:29.919Z,30.50
2019-03-29T11:08:59.089Z,30.13
2019-03-29T11:11:28.281Z,30.67
2019-03-29T11:13:57.487Z,31.77
2019-03-29T11:16:26.759Z,30.50
2019-03-29T11:18:56.102Z,29.77
2019-03-29T11:21:25.311Z,29.93
2019-03-29T11:23:54.507Z,29.30
2019-03-29T11:26:23.686Z,30.33
2019-03-29T11:28:52.904Z,30.33
2019-03-29T11:31:25.406Z,30.53
2019-03-29T11:33:53.074Z,30.43
2019-03-29T11:36:22.259Z,29.60
2019-03-29T11:38:51.433Z,29.83
2019-03-29T11:41:20.585Z,28.67
2019-03-29T11:43:49.782Z,28.63
2019-03-29T11:46:18.946Z,26.37
2019-03-29T11:48:48.163Z,26.33
2019-03-29T11:51:19.515Z,27.00
2019-03-29T11:53:50.965Z,25.63
2019-03-29T11:56:19.251Z,24.13
2019-03-29T11:58:48.429Z,25.47
2019-03-29T12:01:17.628Z,24.77
2019-03-29T12:03:46.811Z,24.67
2019-03-29T12:06:15.989Z,23.57
2019-03-29T12:08:45.158Z,22.90
2019-03-29T12:11:14.376Z,23.10
2019-03-29T12:13:43.545Z,23.37
2019-03-29T12:16:12.746Z,20.67
2019-03-29T12:18:41.933Z,21.07
2019-03-29T12:21:11.102Z,20.47
2019-03-29T12:23:40.281Z,19.20
2019-03-29T12:26:09.454Z,19.97
2019-03-29T12:28:38.619Z,18.80
2019-03-29T12:31:08.054Z,19.00
2019-03-29T12:33:37.214Z,18.03
2019-03-29T12:36:06.498Z,19.27
2019-03-29T12:38:35.778Z,17.50
2019-03-29T12:41:04.933Z,18.23
2019-03-29T12:43:34.112Z,17.77
2019-03-29T12:46:03.309Z,16.80
2019-03-29T12:48:32.487Z,16.53
2019-03-29T12:51:01.655Z,16.97
2019-03-29T12:53:30.833Z,16.87
2019-03-29T12:56:00.094Z,15.83
2019-03-29T12:58:29.276Z,17.07
2019-03-29T13:00:58.455Z,15.90
2019-03-29T13:03:27.617Z,16.03
2019-03-29T13:05:56.793Z,15.13
2019-03-29T13:08:25.970Z,15.37
2019-03-29T13:10:55.334Z,15.27
2019-03-29T13:13:24.519Z,15.53
2019-03-29T13:15:53.695Z,15.00
2019-03-29T13:18:22.849Z,14.83
2019-03-29T13:20:52.038Z,14.50
2019-03-29T13:23:21.208Z,14.30
2019-03-29T13:25:50.391Z,14.80
2019-03-29T13:28:19.595Z,14.20
2019-03-29T13:30:48.793Z,13.83
2019-03-29T13:33:20.501Z,14.60
2019-03-29T13:35:48.996Z,14.07
2019-03-29T13:38:20.513Z,14.03
2019-03-29T13:40:49.213Z,15.50
2019-03-29T13:43:18.602Z,14.53
2019-03-29T13:45:47.790Z,14.97
2019-03-29T13:48:16.962Z,14.47
2019-03-29T13:50:46.205Z,15.80
2019-03-29T13:53:15.418Z,15.70
2019-03-29T13:55:44.585Z,16.73
2019-03-29T13:58:13.761Z,16.67
2019-03-29T14:00:42.939Z,16.60
2019-03-29T14:03:12.105Z,17.10
2019-03-29T14:05:41.293Z,16.70
2019-03-29T14:08:10.466Z,16.60
2019-03-29T14:10:39.651Z,18.83
2019-03-29T14:13:08.825Z,16.50
2019-03-29T14:15:38.036Z,17.30
2019-03-29T14:18:07.201Z,25.33
2019-03-29T14:23:25.157Z,35.00
2019-03-29T14:25:54.337Z,33.20
2019-03-29T14:28:23.533Z,34.03
2019-03-29T14:30:52.726Z,34.60
2019-03-29T14:33:21.890Z,35.03
2019-03-29T14:35:51.107Z,34.10
2019-03-29T14:38:20.399Z,35.63
2019-03-29T14:40:49.690Z,36.17
2019-03-29T14:43:18.866Z,35.63
2019-03-29T14:45:48.075Z,33.77
2019-03-29T14:48:17.258Z,35.37
2019-03-29T14:50:46.439Z,36.30
2019-03-29T14:53:15.620Z,34.67
2019-03-29T14:55:44.782Z,36.57
2019-03-29T14:58:13.980Z,34.97
2019-03-29T15:00:43.819Z,34.53
2019-03-29T15:03:13.203Z,36.27
2019-03-29T15:05:42.429Z,33.10
2019-03-29T15:08:11.668Z,35.50
2019-03-29T15:10:40.862Z,36.00
2019-03-29T15:13:10.073Z,29.70
2019-03-29T15:15:39.263Z,34.30
2019-03-29T15:18:08.437Z,35.13
2019-03-29T15:20:37.630Z,34.57
2019-03-29T15:23:06.850Z,34.17
2019-03-29T15:25:36.033Z,34.67
2019-03-29T15:28:05.223Z,34.27
2019-03-29T15:30:34.436Z,33.43
2019-03-29T15:33:03.774Z,33.20
2019-03-29T15:35:32.955Z,31.97
2019-03-29T15:38:02.263Z,32.90
2019-03-29T15:40:31.518Z,33.10
2019-03-29T15:43:00.737Z,33.77
2019-03-29T15:45:29.898Z,32.67
2019-03-29T15:47:59.101Z,34.67
2019-03-29T15:50:28.296Z,34.43
2019-03-29T15:52:57.490Z,33.50
2019-03-29T15:55:26.683Z,34.03
2019-03-29T15:57:55.860Z,33.97
2019-03-29T16:00:25.037Z,32.87
2019-03-29T16:02:54.223Z,31.70
2019-03-29T16:05:30.704Z,33.00
2019-03-29T16:07:59.910Z,33.53
2019-03-29T16:10:29.098Z,34.43
2019-03-29T16:13:00.067Z,34.87
2019-03-29T16:15:38.091Z,33.63
2019-03-29T16:18:05.043Z,31.10
2019-03-29T16:20:34.226Z,31.77
2019-03-29T16:23:03.419Z,33.20
2019-03-29T16:25:32.631Z,31.33
2019-03-29T16:28:01.870Z,32.13
2019-03-29T16:30:31.075Z,32.17
2019-03-29T16:33:00.307Z,30.57
2019-03-29T16:35:29.494Z,31.90
2019-03-29T16:37:58.683Z,30.63
2019-03-29T16:40:30.887Z,29.93
2019-03-29T16:42:58.772Z,29.20
2019-03-29T16:45:27.994Z,30.50
2019-03-29T16:47:57.194Z,30.20
2019-03-29T16:50:26.374Z,30.43
2019-03-29T16:52:55.547Z,29.43
2019-03-29T16:55:24.729Z,29.73
2019-03-29T16:57:53.931Z,30.43
2019-03-29T17:00:23.114Z,27.97
2019-03-29T17:02:52.328Z,28.80
2019-03-29T17:05:21.528Z,27.63
2019-03-29T17:07:50.718Z,26.77
2019-03-29T17:10:20.171Z,26.73
2019-03-29T17:12:52.048Z,25.93
2019-03-29T17:15:20.275Z,26.63
2019-03-29T17:17:49.449Z,26.40
2019-03-29T17:20:18.652Z,26.20
2019-03-29T17:22:47.903Z,24.70
2019-03-29T17:25:17.089Z,24.73
2019-03-29T17:27:46.298Z,25.23
2019-03-29T17:30:17.694Z,26.53
2019-03-29T17:32:46.878Z,26.40
2019-03-29T17:35:16.075Z,24.83
2019-03-29T17:37:45.254Z,26.10
2019-03-29T17:40:14.481Z,25.30
2019-03-29T17:42:43.666Z,25.77
2019-03-29T17:45:12.851Z,24.73
2019-03-29T17:47:42.042Z,25.60
2019-03-29T17:50:11.253Z,24.77
2019-03-29T17:52:40.430Z,24.63
2019-03-29T17:55:09.621Z,25.60
2019-03-29T17:57:38.810Z,24.73
2019-03-29T18:00:08.338Z,23.90
2019-03-29T18:02:37.521Z,24.23
2019-03-29T18:05:06.833Z,25.30
2019-03-29T18:07:36.077Z,25.10
2019-03-29T18:10:05.470Z,24.20
2019-03-29T18:12:34.690Z,23.57
2019-03-29T18:15:03.974Z,24.20
2019-03-29T18:17:33.166Z,25.00
2019-03-29T18:20:02.362Z,22.87
2019-03-29T18:22:31.566Z,23.50
2019-03-29T18:25:00.759Z,23.70
2019-03-29T18:27:29.958Z,23.60
2019-03-29T18:29:59.135Z,24.00
2019-03-29T18:32:28.311Z,23.83
2019-03-29T18:34:57.576Z,23.47
2019-03-29T18:37:26.771Z,23.23
2019-03-29T18:39:55.949Z,24.13
2019-03-29T18:42:25.142Z,23.97
2019-03-29T18:44:54.315Z,24.90
2019-03-29T18:47:23.501Z,24.37
2019-03-29T18:49:52.685Z,23.53
2019-03-29T18:52:21.862Z,24.20
2019-03-29T18:54:51.058Z,24.50
2019-03-29T18:57:20.254Z,23.03
2019-03-29T18:59:49.451Z,24.33
2019-03-29T19:02:18.632Z,24.27
2019-03-29T19:04:48.110Z,24.97
2019-03-29T19:07:21.988Z,24.27
2019-03-29T19:09:51.189Z,25.10
2019-03-29T19:12:20.390Z,27.57
2019-03-29T19:14:49.583Z,25.47
2019-03-29T19:17:18.750Z,25.23
2019-03-29T19:19:47.937Z,24.07
2019-03-29T19:22:17.119Z,24.03
2019-03-29T19:24:46.401Z,25.33
2019-03-29T19:27:15.582Z,25.20
2019-03-29T19:29:44.769Z,25.27
2019-03-29T19:32:14.163Z,24.70
2019-03-29T19:34:43.454Z,24.37
2019-03-29T19:37:12.659Z,23.77
2019-03-29T19:39:41.838Z,31.13
2019-03-29T19:42:11.017Z,27.03
2019-03-29T19:44:40.192Z,25.60
2019-03-29T19:47:13.562Z,26.13
2019-03-29T19:49:40.283Z,27.67
2019-03-29T19:52:09.443Z,26.13
2019-03-29T19:54:38.650Z,27.13
2019-03-29T19:57:07.834Z,24.93
2019-03-29T19:59:37.073Z,25.30
2019-03-29T20:02:06.324Z,27.10
2019-03-29T20:04:35.530Z,27.63
2019-03-29T20:07:04.790Z,27.43
2019-03-29T20:09:34.012Z,26.83
2019-03-29T20:12:03.249Z,26.33
2019-03-29T20:14:32.439Z,27.40
2019-03-29T20:17:01.693Z,29.77
2019-03-29T20:19:30.874Z,32.37
2019-03-29T20:22:00.082Z,25.67
2019-03-29T20:24:29.281Z,25.67
2019-03-29T20:26:58.459Z,27.60
2019-03-29T20:29:27.679Z,27.13
2019-03-29T20:31:56.873Z,26.07
2019-03-29T20:34:26.121Z,26.57
2019-03-29T20:36:55.363Z,26.10
2019-03-29T20:39:24.552Z,26.97
2019-03-29T20:41:53.726Z,27.87
2019-03-29T20:44:22.910Z,31.77
2019-03-29T20:46:52.084Z,27.63
2019-03-29T20:49:21.278Z,30.10
2019-03-29T20:51:50.489Z,29.30
2019-03-29T20:54:19.754Z,29.97
2019-03-29T20:56:48.944Z,31.90
2019-03-29T20:59:18.129Z,30.20
2019-03-29T21:01:47.328Z,29.80
2019-03-29T21:04:16.525Z,29.23
2019-03-29T21:06:46.809Z,31.93
2019-03-29T21:09:15.983Z,31.23
2019-03-29T21:11:46.835Z,30.90
2019-03-29T21:14:18.209Z,30.70
2019-03-29T21:16:47.449Z,31.63
2019-03-29T21:19:16.666Z,30.00
2019-03-29T21:21:46.170Z,33.07
2019-03-29T21:24:15.725Z,32.83
2019-03-29T21:26:48.134Z,32.77
2019-03-29T21:29:18.969Z,33.57
2019-03-29T21:31:48.872Z,33.57
2019-03-29T21:34:19.086Z,33.70
2019-03-29T21:36:48.417Z,32.17
2019-03-29T21:39:17.587Z,32.70
2019-03-29T21:41:46.806Z,33.57
2019-03-29T21:44:15.989Z,34.03
2019-03-29T21:46:45.187Z,32.93
2019-03-29T21:49:14.370Z,35.27
2019-03-29T21:51:43.598Z,32.47
2019-03-29T21:54:12.786Z,35.03
2019-03-29T21:56:41.978Z,33.93
2019-03-29T21:59:11.167Z,36.70
2019-03-29T22:01:40.350Z,35.90
2019-03-29T22:04:09.587Z,36.20
2019-03-29T22:06:38.765Z,37.60
2019-03-29T22:09:08.355Z,37.57
2019-03-29T22:11:37.549Z,37.77
2019-03-29T22:14:06.843Z,36.10
2019-03-29T22:16:36.062Z,42.10
2019-03-29T22:19:05.239Z,39.97
2019-03-29T22:21:34.439Z,37.70
2019-03-29T22:24:03.648Z,37.53
2019-03-29T22:26:33.056Z,36.30
2019-03-29T22:29:02.234Z,39.00
2019-03-29T22:31:31.430Z,37.77
2019-03-29T22:34:00.703Z,37.53
2019-03-29T22:36:29.890Z,38.33
2019-03-29T22:38:59.083Z,37.77
2019-03-29T22:41:28.273Z,38.63
2019-03-29T22:43:57.491Z,39.50
2019-03-29T22:46:26.683Z,38.97
2019-03-29T22:48:55.846Z,38.37
2019-03-29T22:51:25.043Z,39.13
2019-03-29T22:53:54.218Z,39.50
2019-03-29T22:56:23.414Z,38.87
2019-03-29T22:58:52.609Z,39.70
2019-03-29T23:01:21.884Z,40.00
2019-03-29T23:03:51.057Z,41.80
2019-03-29T23:06:20.321Z,41.17
2019-03-29T23:08:49.501Z,39.57
2019-03-29T23:11:18.674Z,40.17
2019-03-29T23:13:47.859Z,39.13
2019-03-29T23:16:17.021Z,39.83
2019-03-29T23:18:46.197Z,39.83
2019-03-29T23:21:15.366Z,41.70
2019-03-29T23:23:44.546Z,41.50
2019-03-29T23:26:13.738Z,41.23
2019-03-29T23:28:42.912Z,42.33
2019-03-29T23:31:12.082Z,43.20
2019-03-29T23:33:41.268Z,42.37
2019-03-29T23:36:10.446Z,44.87
2019-03-29T23:38:39.665Z,41.37
2019-03-29T23:41:08.834Z,43.60
2019-03-29T23:43:38.034Z,41.87
2019-03-29T23:46:07.209Z,40.60
2019-03-29T23:48:36.387Z,41.83
2019-03-29T23:51:05.566Z,41.57
2019-03-29T23:53:34.743Z,41.00
2019-03-29T23:56:03.918Z,43.10
2019-03-29T23:58:33.101Z,41.07
